createdAt,value
2023-05-04T00:01:18.619Z,101369.00
2023-05-04T00:03:45.858Z,101359.00
2023-05-04T00:06:12.923Z,101372.00
2023-05-04T00:08:39.817Z,101361.00
2023-05-04T00:11:07.035Z,101359.00
2023-05-04T00:13:33.868Z,101352.00
2023-05-04T00:16:00.787Z,101355.00
2023-05-04T00:18:27.658Z,101348.00
2023-05-04T00:20:54.503Z,101351.00
2023-05-04T00:23:21.406Z,101352.00
2023-05-04T00:25:48.287Z,101347.00
2023-05-04T00:28:15.492Z,101342.00
2023-05-04T00:30:42.332Z,101337.00
2023-05-04T00:33:09.627Z,101348.00
2023-05-04T00:35:36.775Z,101341.00
2023-05-04T00:38:05.006Z,101345.00
2023-05-04T00:40:31.900Z,101348.00
2023-05-04T00:42:58.803Z,101342.00
2023-05-04T00:45:26.200Z,101332.00
2023-05-04T00:47:54.111Z,101337.00
2023-05-04T00:50:21.156Z,101344.00
2023-05-04T00:52:50.263Z,101342.00
2023-05-04T00:55:17.620Z,101346.00
2023-05-04T00:57:44.670Z,101342.00
2023-05-04T01:00:13.345Z,101339.00
2023-05-04T01:02:42.610Z,101317.00
2023-05-04T01:05:12.446Z,101361.00
2023-05-04T01:08:01.226Z,101351.00
2023-05-04T01:10:43.307Z,101358.00
2023-05-04T01:13:14.998Z,101348.00
2023-05-04T01:15:43.186Z,101357.00
2023-05-04T01:18:10.245Z,101349.00
2023-05-04T01:20:37.209Z,101347.00
2023-05-04T01:23:04.396Z,101340.00
2023-05-04T01:25:49.074Z,101351.00
2023-05-04T01:28:25.758Z,101340.00
2023-05-04T01:31:00.529Z,101340.00
2023-05-04T01:33:31.046Z,101343.00
2023-05-04T01:35:59.440Z,101330.00
2023-05-04T01:38:26.495Z,101338.00
2023-05-04T01:40:53.350Z,101339.00
2023-05-04T01:43:20.241Z,101344.00
2023-05-04T01:45:47.221Z,101339.00
2023-05-04T01:48:14.153Z,101317.00
2023-05-04T01:50:41.332Z,101321.00
2023-05-04T01:53:08.193Z,101330.00
2023-05-04T01:55:35.400Z,101332.00
2023-05-04T01:58:02.616Z,101326.00
2023-05-04T02:00:29.474Z,101218.00
2023-05-04T02:02:56.370Z,101331.00
2023-05-04T02:05:23.320Z,101325.00
2023-05-04T02:07:50.248Z,101313.00
2023-05-04T02:10:17.204Z,101316.00
2023-05-04T02:12:44.104Z,101318.00
2023-05-04T02:15:11.721Z,101320.00
2023-05-04T02:17:38.756Z,101316.00
2023-05-04T02:20:07.067Z,101322.00
2023-05-04T02:22:34.121Z,101315.00
2023-05-04T02:25:01.056Z,101321.00
2023-05-04T02:27:27.937Z,101317.00
2023-05-04T02:29:54.870Z,101314.00
2023-05-04T02:32:21.797Z,101312.00
2023-05-04T02:34:48.681Z,101324.00
2023-05-04T02:37:16.387Z,101326.00
2023-05-04T02:39:43.255Z,101327.00
2023-05-04T02:42:10.072Z,101327.00
2023-05-04T02:44:37.013Z,101331.00
2023-05-04T02:47:03.862Z,101334.00
2023-05-04T02:49:31.052Z,101333.00
2023-05-04T02:51:58.108Z,101329.00
2023-05-04T02:54:25.014Z,101323.00
2023-05-04T02:56:51.881Z,101319.00
2023-05-04T02:59:18.848Z,101326.00
2023-05-04T03:01:45.777Z,101324.00
2023-05-04T03:04:12.662Z,101317.00
2023-05-04T03:06:39.654Z,101315.00
2023-05-04T03:09:06.700Z,101317.00
2023-05-04T03:11:33.516Z,101315.00
2023-05-04T03:14:01.076Z,101317.00
2023-05-04T03:16:27.931Z,101320.00
2023-05-04T03:18:58.380Z,101310.00
2023-05-04T03:21:25.576Z,101320.00
2023-05-04T03:23:52.423Z,101322.00
2023-05-04T03:26:19.227Z,101311.00
2023-05-04T03:28:46.059Z,101309.00
2023-05-04T03:31:12.908Z,101308.00
2023-05-04T03:33:39.747Z,101299.00
2023-05-04T03:36:06.810Z,101303.00
2023-05-04T03:38:33.707Z,101299.00
2023-05-04T03:41:00.604Z,101302.00
2023-05-04T03:43:27.480Z,101299.00
2023-05-04T03:45:54.440Z,101298.00
2023-05-04T03:48:21.323Z,101300.00
2023-05-04T03:50:48.235Z,101295.00
2023-05-04T03:53:15.045Z,101293.00
2023-05-04T03:55:41.913Z,101297.00
2023-05-04T03:58:08.804Z,101306.00
2023-05-04T04:00:35.726Z,101302.00
2023-05-04T04:03:03.208Z,101289.00
2023-05-04T04:05:30.178Z,101300.00
2023-05-04T04:07:57.053Z,101299.00
2023-05-04T04:10:23.981Z,101299.00
2023-05-04T04:12:50.969Z,101303.00
2023-05-04T04:15:17.851Z,101307.00
2023-05-04T04:17:44.736Z,101300.00
2023-05-04T04:20:12.921Z,101300.00
2023-05-04T04:22:39.935Z,101309.00
2023-05-04T04:25:07.192Z,101308.00
2023-05-04T04:27:34.103Z,101297.00
2023-05-04T04:30:00.953Z,101305.00
2023-05-04T04:32:27.890Z,101297.00
2023-05-04T04:34:54.804Z,101292.00
2023-05-04T04:37:22.462Z,101300.00
2023-05-04T04:39:49.310Z,101295.00
2023-05-04T04:42:16.290Z,101298.00
2023-05-04T04:44:43.143Z,101298.00
2023-05-04T04:47:10.191Z,101300.00
2023-05-04T04:49:37.164Z,101299.00
2023-05-04T04:52:04.660Z,101299.00
2023-05-04T04:54:31.708Z,101299.00
2023-05-04T04:56:59.496Z,101301.00
2023-05-04T04:59:26.400Z,101304.00
2023-05-04T05:01:53.503Z,101306.00
2023-05-04T05:04:22.062Z,101315.00
2023-05-04T05:06:49.862Z,101316.00
2023-05-04T05:09:16.803Z,101324.00
2023-05-04T05:11:43.735Z,101323.00
2023-05-04T05:14:10.653Z,101327.00
2023-05-04T05:16:37.658Z,101326.00
2023-05-04T05:19:04.626Z,101330.00
2023-05-04T05:21:31.461Z,101320.00
2023-05-04T05:23:58.357Z,101328.00
2023-05-04T05:26:25.336Z,101320.00
2023-05-04T05:28:52.203Z,101324.00
2023-05-04T05:31:19.161Z,101317.00
2023-05-04T05:33:46.128Z,101314.00
2023-05-04T05:36:14.492Z,101323.00
2023-05-04T05:38:41.355Z,101322.00
2023-05-04T05:41:09.735Z,101318.00
2023-05-04T05:43:38.595Z,101324.00
2023-05-04T05:46:07.280Z,101329.00
2023-05-04T05:48:34.329Z,101320.00
2023-05-04T05:51:01.446Z,101306.00
2023-05-04T05:53:28.385Z,101341.00
2023-05-04T05:55:55.329Z,101331.00
2023-05-04T05:58:23.072Z,101320.00
2023-05-04T06:00:49.889Z,101325.00
2023-05-04T06:03:16.807Z,101328.00
2023-05-04T06:05:43.686Z,101332.00
2023-05-04T06:08:10.756Z,101330.00
2023-05-04T06:10:37.671Z,101331.00
2023-05-04T06:13:04.556Z,101330.00
2023-05-04T06:15:31.487Z,101327.00
2023-05-04T06:17:58.396Z,101320.00
2023-05-04T06:20:25.291Z,101325.00
2023-05-04T06:22:52.137Z,101324.00
2023-05-04T06:25:19.028Z,101322.00
2023-05-04T06:27:45.889Z,101314.00
2023-05-04T06:30:13.702Z,101320.00
2023-05-04T06:32:40.667Z,101315.00
2023-05-04T06:35:09.131Z,101295.00
2023-05-04T06:37:36.265Z,101319.00
2023-05-04T06:40:06.341Z,101319.00
2023-05-04T06:42:33.377Z,101316.00
2023-05-04T06:45:00.234Z,101322.00
2023-05-04T06:47:27.198Z,101317.00
2023-05-04T06:49:54.127Z,101311.00
2023-05-04T06:52:21.595Z,101238.00
2023-05-04T06:54:48.473Z,101314.00
2023-05-04T06:57:15.630Z,101309.00
2023-05-04T06:59:42.671Z,101316.00
2023-05-04T07:02:09.854Z,101315.00
2023-05-04T07:04:37.126Z,101310.00
2023-05-04T07:07:04.079Z,101314.00
2023-05-04T07:09:30.917Z,101308.00
2023-05-04T07:11:57.740Z,101309.00
2023-05-04T07:14:24.590Z,101305.00
2023-05-04T07:16:51.624Z,101304.00
2023-05-04T07:19:18.424Z,101303.00
2023-05-04T07:21:45.259Z,101303.00
2023-05-04T07:24:12.176Z,101295.00
2023-05-04T07:26:39.106Z,101303.00
2023-05-04T07:29:06.083Z,101300.00
2023-05-04T07:31:33.694Z,101297.00
2023-05-04T07:34:00.679Z,101286.00
2023-05-04T07:36:27.888Z,101286.00
2023-05-04T07:38:54.744Z,101291.00
2023-05-04T07:41:21.762Z,101290.00
2023-05-04T07:43:48.678Z,101296.00
2023-05-04T07:46:16.448Z,101290.00
2023-05-04T07:48:43.481Z,101300.00
2023-05-04T07:51:14.721Z,101302.00
2023-05-04T07:53:43.122Z,101299.00
2023-05-04T07:56:13.905Z,101301.00
2023-05-04T07:58:41.395Z,101306.00
2023-05-04T08:01:08.388Z,101302.00
2023-05-04T08:03:35.400Z,101304.00
2023-05-04T08:06:02.627Z,101294.00
2023-05-04T08:08:29.929Z,101305.00
2023-05-04T08:11:07.956Z,101302.00
2023-05-04T08:13:40.380Z,101295.00
2023-05-04T08:16:09.737Z,101293.00
2023-05-04T08:18:37.152Z,101295.00
2023-05-04T08:21:04.501Z,101303.00
2023-05-04T08:23:34.489Z,101298.00
2023-05-04T08:26:05.187Z,101296.00
2023-05-04T08:28:39.370Z,101296.00
2023-05-04T08:31:07.752Z,101281.00
2023-05-04T08:33:34.766Z,101295.00
2023-05-04T08:36:01.733Z,101297.00
2023-05-04T08:38:29.803Z,101298.00
2023-05-04T08:40:57.518Z,101302.00
2023-05-04T08:43:24.695Z,101302.00
2023-05-04T08:45:52.227Z,101291.00
2023-05-04T08:48:19.372Z,101293.00
2023-05-04T08:50:47.002Z,101273.00
2023-05-04T08:53:18.902Z,101289.00
2023-05-04T08:55:51.316Z,101292.00
2023-05-04T08:58:22.109Z,101297.00
2023-05-04T09:00:50.989Z,101288.00
2023-05-04T09:03:19.224Z,101293.00
2023-05-04T09:05:46.563Z,101296.00
2023-05-04T09:08:14.998Z,101293.00
2023-05-04T09:10:41.876Z,101296.00
2023-05-04T09:13:08.839Z,101293.00
2023-05-04T09:15:35.702Z,101294.00
2023-05-04T09:18:05.805Z,101291.00
2023-05-04T09:20:46.821Z,101289.00
2023-05-04T09:23:16.288Z,101283.00
2023-05-04T09:25:54.769Z,101286.00
2023-05-04T09:28:36.824Z,101295.00
2023-05-04T09:31:06.232Z,101283.00
2023-05-04T09:33:33.728Z,101273.00
2023-05-04T09:36:15.048Z,101277.00
2023-05-04T09:38:42.150Z,101278.00
2023-05-04T09:41:09.406Z,101267.00
2023-05-04T09:43:43.805Z,101275.00
2023-05-04T09:46:19.985Z,101272.00
2023-05-04T09:48:55.622Z,101274.00
2023-05-04T09:51:29.537Z,101277.00
2023-05-04T09:54:01.877Z,101266.00
2023-05-04T09:56:38.974Z,101262.00
2023-05-04T09:59:06.267Z,101266.00
2023-05-04T10:01:33.754Z,101266.00
2023-05-04T10:04:01.668Z,101255.00
2023-05-04T10:06:33.053Z,101259.00
2023-05-04T10:09:03.346Z,101272.00
2023-05-04T10:11:32.192Z,101282.00
2023-05-04T10:13:59.303Z,101252.00
2023-05-04T10:16:41.360Z,101263.00
2023-05-04T10:19:38.295Z,101253.00
2023-05-04T10:22:43.374Z,101245.00
2023-05-04T10:25:36.624Z,101248.00
2023-05-04T10:28:21.235Z,101248.00
2023-05-04T10:30:48.450Z,101251.00
2023-05-04T10:33:15.384Z,101242.00
2023-05-04T10:35:55.667Z,101248.00
2023-05-04T10:38:42.900Z,101246.00
2023-05-04T10:41:20.252Z,101246.00
2023-05-04T10:43:53.153Z,101231.00
2023-05-04T10:46:22.267Z,101224.00
2023-05-04T10:48:51.008Z,101242.00
2023-05-04T10:51:32.578Z,101233.00
2023-05-04T10:54:03.304Z,101240.00
2023-05-04T10:56:30.210Z,101236.00
2023-05-04T10:58:57.078Z,101235.00
2023-05-04T11:01:24.392Z,101226.00
2023-05-04T11:03:52.994Z,101218.00
2023-05-04T11:06:25.173Z,101221.00
2023-05-04T11:09:03.368Z,101218.00
2023-05-04T11:11:35.888Z,101214.00
2023-05-04T11:14:03.356Z,101211.00
2023-05-04T11:16:30.271Z,101215.00
2023-05-04T11:19:09.670Z,101217.00
2023-05-04T11:21:36.741Z,101213.00
2023-05-04T11:24:04.060Z,101214.00
2023-05-04T11:26:31.019Z,101211.00
2023-05-04T11:28:57.928Z,101217.00
2023-05-04T11:31:24.906Z,101199.00
2023-05-04T11:33:57.321Z,101212.00
2023-05-04T11:36:25.022Z,101202.00
2023-05-04T11:38:56.544Z,101203.00
2023-05-04T11:41:27.154Z,101191.00
2023-05-04T11:43:54.307Z,101197.00
2023-05-04T11:46:21.524Z,101191.00
2023-05-04T11:48:48.581Z,101187.00
2023-05-04T11:51:15.471Z,101187.00
2023-05-04T11:53:42.355Z,101189.00
2023-05-04T11:56:09.811Z,101192.00
2023-05-04T11:58:37.823Z,101200.00
2023-05-04T12:01:05.183Z,101196.00
2023-05-04T12:06:05.591Z,101184.00
2023-05-04T12:08:35.921Z,101193.00
2023-05-04T12:11:16.526Z,101189.00
2023-05-04T12:13:45.827Z,101166.00
2023-05-04T12:16:17.433Z,101189.00
2023-05-04T12:18:46.675Z,101176.00
2023-05-04T12:21:21.425Z,101178.00
2023-05-04T12:23:48.509Z,101175.00
2023-05-04T12:26:18.146Z,101169.00
2023-05-04T12:28:47.296Z,101181.00
2023-05-04T12:31:14.367Z,101165.00
2023-05-04T12:33:41.498Z,101188.00
2023-05-04T12:36:09.008Z,101172.00
2023-05-04T12:38:36.121Z,101173.00
2023-05-04T12:41:04.305Z,101167.00
2023-05-04T12:43:32.929Z,101167.00
2023-05-04T12:46:00.361Z,101172.00
2023-05-04T12:48:29.117Z,101175.00
2023-05-04T12:50:56.171Z,101173.00
2023-05-04T12:53:25.806Z,101162.00
2023-05-04T12:55:52.734Z,101167.00
2023-05-04T12:58:19.673Z,101162.00
2023-05-04T13:00:46.620Z,101173.00
2023-05-04T13:03:14.543Z,101170.00
2023-05-04T13:05:41.613Z,101169.00
2023-05-04T13:08:08.770Z,101167.00
2023-05-04T13:10:35.899Z,101165.00
2023-05-04T13:13:04.812Z,101162.00
2023-05-04T13:15:33.281Z,101167.00
2023-05-04T13:18:00.613Z,101158.00
2023-05-04T13:20:27.779Z,101158.00
2023-05-04T13:22:58.143Z,101151.00
2023-05-04T13:25:25.722Z,101155.00
2023-05-04T13:27:53.006Z,101148.00
2023-05-04T13:30:21.692Z,101143.00
2023-05-04T13:32:49.138Z,101142.00
2023-05-04T13:35:16.381Z,101138.00
2023-05-04T13:37:43.270Z,101128.00
2023-05-04T13:40:11.151Z,101140.00
2023-05-04T13:42:38.327Z,101130.00
2023-05-04T13:45:07.080Z,101129.00
2023-05-04T13:47:37.018Z,101110.00
2023-05-04T13:50:04.614Z,101131.00
2023-05-04T13:52:32.161Z,101128.00
2023-05-04T13:54:59.699Z,101121.00
2023-05-04T13:57:30.260Z,101130.00
2023-05-04T14:00:06.998Z,101114.00
2023-05-04T14:02:35.253Z,101152.00
2023-05-04T14:05:04.161Z,101134.00
2023-05-04T14:07:31.377Z,101135.00
2023-05-04T14:09:59.102Z,101137.00
2023-05-04T14:12:26.287Z,101124.00
2023-05-04T14:14:53.244Z,101141.00
2023-05-04T14:17:20.172Z,101152.00
2023-05-04T14:19:47.110Z,101151.00
2023-05-04T14:22:13.987Z,101142.00
2023-05-04T14:24:40.961Z,101154.00
2023-05-04T14:27:07.889Z,101149.00
2023-05-04T14:29:35.162Z,101144.00
2023-05-04T14:32:02.251Z,101144.00
2023-05-04T14:34:29.157Z,101141.00
2023-05-04T14:36:56.589Z,101139.00
2023-05-04T14:39:23.546Z,101135.00
2023-05-04T14:41:52.736Z,101133.00
2023-05-04T14:44:22.546Z,101144.00
2023-05-04T14:46:49.426Z,101133.00
2023-05-04T14:49:34.798Z,101133.00
2023-05-04T14:52:04.034Z,101129.00
2023-05-04T14:54:30.989Z,101123.00
2023-05-04T14:56:58.947Z,101125.00
2023-05-04T14:59:26.727Z,101049.00
2023-05-04T15:01:55.024Z,101125.00
2023-05-04T15:04:22.430Z,101117.00
2023-05-04T15:06:49.645Z,101119.00
2023-05-04T15:09:16.565Z,101135.00
2023-05-04T15:11:43.508Z,101126.00
2023-05-04T15:14:10.363Z,101128.00
2023-05-04T15:16:37.241Z,101118.00
2023-05-04T15:19:04.125Z,101120.00
2023-05-04T15:21:31.563Z,101113.00
2023-05-04T15:23:58.620Z,101120.00
2023-05-04T15:26:25.834Z,101114.00
2023-05-04T15:28:54.101Z,101115.00
2023-05-04T15:31:21.803Z,101113.00
2023-05-04T15:33:48.807Z,101110.00
2023-05-04T15:36:15.714Z,101113.00
2023-05-04T15:38:43.831Z,101091.00
2023-05-04T15:41:10.851Z,101102.00
2023-05-04T15:43:37.728Z,101105.00
2023-05-04T15:46:04.720Z,101107.00
2023-05-04T15:48:31.620Z,101107.00
2023-05-04T15:50:58.606Z,101106.00
2023-05-04T15:53:25.624Z,101112.00
2023-05-04T15:55:52.990Z,101107.00
2023-05-04T15:58:19.831Z,101101.00
2023-05-04T16:00:46.721Z,101104.00
2023-05-04T16:03:13.710Z,101106.00
2023-05-04T16:05:40.700Z,101108.00
2023-05-04T16:08:07.533Z,101113.00
2023-05-04T16:10:34.414Z,101107.00
2023-05-04T16:13:03.961Z,101095.00
2023-05-04T16:15:31.324Z,101099.00
2023-05-04T16:17:58.279Z,101106.00
2023-05-04T16:20:28.635Z,101096.00
2023-05-04T16:22:55.730Z,101102.00
2023-05-04T16:25:22.624Z,101094.00
2023-05-04T16:27:49.566Z,101096.00
2023-05-04T16:30:17.229Z,101102.00
2023-05-04T16:32:44.724Z,101092.00
2023-05-04T16:35:11.718Z,101096.00
2023-05-04T16:37:38.924Z,101090.00
2023-05-04T16:40:16.891Z,101089.00
2023-05-04T16:42:44.970Z,101093.00
2023-05-04T16:45:13.704Z,101126.00
2023-05-04T16:47:42.186Z,101093.00
2023-05-04T16:50:12.488Z,101093.00
2023-05-04T16:52:40.110Z,101094.00
2023-05-04T16:55:11.276Z,101091.00
2023-05-04T16:57:39.260Z,101094.00
2023-05-04T17:00:07.737Z,101091.00
2023-05-04T17:02:35.945Z,101101.00
2023-05-04T17:05:06.471Z,101103.00
2023-05-04T17:07:34.187Z,101094.00
2023-05-04T17:10:01.507Z,101103.00
2023-05-04T17:12:28.894Z,101101.00
2023-05-04T17:14:55.920Z,101105.00
2023-05-04T17:17:22.876Z,101108.00
2023-05-04T17:19:49.846Z,101070.00
2023-05-04T17:22:17.411Z,101096.00
2023-05-04T17:24:45.753Z,101103.00
2023-05-04T17:27:13.157Z,101107.00
2023-05-04T17:29:41.122Z,101106.00
2023-05-04T17:32:08.348Z,101104.00
2023-05-04T17:34:36.229Z,101108.00
2023-05-04T17:37:03.514Z,101115.00
2023-05-04T17:39:31.589Z,101116.00
2023-05-04T17:41:59.330Z,101086.00
2023-05-04T17:44:28.172Z,101128.00
2023-05-04T17:46:55.292Z,101124.00
2023-05-04T17:49:22.139Z,101129.00
2023-05-04T17:51:49.349Z,101123.00
2023-05-04T17:54:16.836Z,101115.00
2023-05-04T17:56:44.184Z,101130.00
2023-05-04T17:59:11.129Z,101126.00
2023-05-04T18:01:38.012Z,101116.00
2023-05-04T18:04:05.392Z,101141.00
2023-05-04T18:06:33.062Z,101156.00
2023-05-04T18:09:00.971Z,101158.00
2023-05-04T18:11:28.312Z,101164.00
2023-05-04T18:13:58.046Z,101173.00
2023-05-04T18:16:25.514Z,101157.00
2023-05-04T18:18:52.738Z,101168.00
2023-05-04T18:21:19.717Z,101173.00
2023-05-04T18:23:46.868Z,101183.00
2023-05-04T18:26:22.476Z,101184.00
2023-05-04T18:28:49.920Z,101179.00
2023-05-04T18:31:17.647Z,101187.00
2023-05-04T18:33:45.076Z,101185.00
2023-05-04T18:36:12.098Z,101186.00
2023-05-04T18:38:40.282Z,101177.00
2023-05-04T18:41:07.548Z,101188.00
2023-05-04T18:43:34.818Z,101194.00
2023-05-04T18:46:08.268Z,101196.00
2023-05-04T18:48:35.400Z,101204.00
2023-05-04T18:51:02.847Z,101199.00
2023-05-04T18:53:30.012Z,101205.00
2023-05-04T18:56:05.180Z,101209.00
2023-05-04T18:58:35.329Z,101209.00
2023-05-04T19:01:02.721Z,101213.00
2023-05-04T19:03:30.192Z,101214.00
2023-05-04T19:05:57.137Z,101217.00
2023-05-04T19:08:24.176Z,101209.00
2023-05-04T19:10:51.060Z,101222.00
2023-05-04T19:13:18.142Z,101222.00
2023-05-04T19:15:47.212Z,101217.00
2023-05-04T19:18:14.286Z,101227.00
2023-05-04T19:20:41.257Z,101234.00
2023-05-04T19:23:10.103Z,101241.00
2023-05-04T19:25:37.216Z,101243.00
2023-05-04T19:28:08.671Z,101245.00
2023-05-04T19:30:39.749Z,101242.00
2023-05-04T19:33:08.323Z,101235.00
2023-05-04T19:35:35.920Z,101235.00
2023-05-04T19:38:03.759Z,101237.00
2023-05-04T19:40:31.054Z,101238.00
2023-05-04T19:42:58.171Z,101231.00
2023-05-04T19:45:25.039Z,101228.00
2023-05-04T19:47:52.878Z,101224.00
2023-05-04T19:50:20.036Z,101229.00
2023-05-04T19:52:47.308Z,101232.00
2023-05-04T19:55:14.229Z,101241.00
2023-05-04T19:57:41.775Z,101233.00
2023-05-04T20:00:10.150Z,101222.00
2023-05-04T20:02:38.216Z,101215.00
2023-05-04T20:05:08.438Z,101224.00
2023-05-04T20:07:35.400Z,101232.00
2023-05-04T20:10:02.418Z,101240.00
2023-05-04T20:12:29.468Z,101239.00
2023-05-04T20:14:56.576Z,101233.00
2023-05-04T20:17:23.567Z,101230.00
2023-05-04T20:19:50.543Z,101233.00
2023-05-04T20:22:17.392Z,101228.00
2023-05-04T20:24:44.360Z,101225.00
2023-05-04T20:27:11.451Z,101203.00
2023-05-04T20:29:38.529Z,101202.00
2023-05-04T20:32:07.252Z,101210.00
2023-05-04T20:34:34.499Z,101185.00
2023-05-04T20:37:02.080Z,101214.00
2023-05-04T20:39:29.149Z,101218.00
2023-05-04T20:41:56.118Z,101212.00
2023-05-04T20:44:23.060Z,101225.00
2023-05-04T20:46:50.095Z,101220.00
2023-05-04T20:49:17.337Z,101225.00
2023-05-04T20:51:44.200Z,101240.00
2023-05-04T20:54:11.684Z,101230.00
2023-05-04T20:56:38.575Z,101230.00
2023-05-04T20:59:05.536Z,101230.00
2023-05-04T21:01:33.760Z,101226.00
2023-05-04T21:04:00.993Z,101231.00
2023-05-04T21:06:27.910Z,101204.00
2023-05-04T21:08:54.790Z,101226.00
2023-05-04T21:11:21.751Z,101227.00
2023-05-04T21:13:48.713Z,101219.00
2023-05-04T21:16:15.960Z,101213.00
2023-05-04T21:18:44.758Z,101220.00
2023-05-04T21:21:11.849Z,101215.00
2023-05-04T21:23:38.668Z,101222.00
2023-05-04T21:26:06.057Z,101203.00
2023-05-04T21:28:33.157Z,101227.00
2023-05-04T21:31:00.044Z,101227.00
2023-05-04T21:33:27.054Z,101234.00
2023-05-04T21:35:54.338Z,101229.00
2023-05-04T21:38:22.168Z,101233.00
2023-05-04T21:40:49.302Z,101224.00
2023-05-04T21:43:16.388Z,101231.00
2023-05-04T21:45:43.344Z,101233.00
2023-05-04T21:48:10.393Z,101231.00
2023-05-04T21:50:37.451Z,101232.00
2023-05-04T21:53:04.284Z,101235.00
2023-05-04T21:55:31.159Z,101232.00
2023-05-04T21:57:58.012Z,101237.00
2023-05-04T22:00:25.105Z,101235.00
2023-05-04T22:02:55.058Z,101236.00
2023-05-04T22:05:22.371Z,101235.00
2023-05-04T22:07:49.943Z,101248.00
2023-05-04T22:10:17.349Z,101239.00
2023-05-04T22:12:44.294Z,101233.00
2023-05-04T22:15:11.782Z,101230.00
2023-05-04T22:17:38.927Z,101233.00
2023-05-04T22:20:07.380Z,101234.00
2023-05-04T22:22:35.627Z,101232.00
2023-05-04T22:25:02.672Z,101229.00
2023-05-04T22:27:29.578Z,101227.00
2023-05-04T22:29:56.440Z,101224.00
2023-05-04T22:32:23.320Z,101225.00
2023-05-04T22:34:50.212Z,101225.00
2023-05-04T22:37:17.056Z,101219.00
2023-05-04T22:39:43.890Z,101215.00
2023-05-04T22:42:10.702Z,101221.00
2023-05-04T22:44:37.591Z,101216.00
2023-05-04T22:47:04.447Z,101213.00
2023-05-04T22:49:31.317Z,101212.00
2023-05-04T22:51:58.138Z,101217.00
2023-05-04T22:54:24.990Z,101213.00
2023-05-04T22:56:51.921Z,101217.00
2023-05-04T22:59:18.775Z,101209.00
2023-05-04T23:01:46.505Z,101208.00
2023-05-04T23:04:13.484Z,101206.00
2023-05-04T23:06:40.338Z,101212.00
2023-05-04T23:09:08.357Z,101214.00
2023-05-04T23:11:35.258Z,101209.00
2023-05-04T23:14:02.073Z,101222.00
2023-05-04T23:16:28.990Z,101224.00
2023-05-04T23:18:56.103Z,101221.00
2023-05-04T23:21:22.997Z,101218.00
2023-05-04T23:23:53.082Z,101222.00
2023-05-04T23:26:19.980Z,101218.00
2023-05-04T23:28:46.832Z,101205.00
2023-05-04T23:31:13.712Z,101212.00
2023-05-04T23:33:40.607Z,101181.00
2023-05-04T23:36:08.280Z,101211.00
2023-05-04T23:38:35.141Z,101221.00
2023-05-04T23:41:04.196Z,101221.00
2023-05-04T23:43:31.984Z,101208.00
2023-05-04T23:46:04.109Z,101199.00
2023-05-04T23:48:32.597Z,101214.00
2023-05-04T23:51:06.408Z,101205.00
2023-05-04T23:53:35.124Z,101219.00
2023-05-04T23:56:06.167Z,101214.00
2023-05-04T23:58:34.996Z,101218.00
